KPRX

Cox Field Airport

Paris, Texas, USA
METAR KPRX 141156Z AUTO 33015G24KT 5SM RA BR OVC005 07/07 A2980 RMK AO2 LTG DSNT NE RAB44 SLP110 P0001 60001 70025 T00720067 10083 20072 53002
Observed Flight Rules
Dec-14 @ 11:56 UTC (24 minutes ago) Instrument Flight Rules
Wind Visibility Clouds Conditions
330° at 15 knots
 Gusting to 24 knots
5 miles
  • Overcast at 500' AGL
  • Rain
  • Mist
Temperatures Readings Precipitation
Current 7°C / 45°F
Dewpoint 7°C / 45°F
Humidity 100%
Altimeter 29.8" Hg
Pressure 1011 hPa
Elevation 167
Current Rain 0.01
METAR KPRX 141156Z AUTO 33015G24KT 5SM RA BR OVC005 07/07 A2980 RMK AO2 LTG DSNT NE RAB44 SLP110 P0001 60001 70025 T00720067 10083 20072 53002
Observed Flight Rules
Dec-14 @ 11:56 UTC
(24 minutes ago)
IFR
Wind Visibility
330° at 15 knots
 Gusting to 24 knots
5 miles
Clouds
  • Overcast at 500' AGL
Conditions
  • Rain
  • Mist
Temperature Dewpoint
7°C / 45°F 7°C / 45°F
Humidity Altimeter Pressure
100% 29.8" Hg 1011 hPa
Current Rain
0.01